sensor_id;sensor_type;location;lat;lon;timestamp;pressure;altitude;pressure_sealevel;temperature;humidity
29359;BME280;16347;53.232;6.556;2024-02-04T00:01:31;102045.22;;;9.64;72.92
29359;BME280;16347;53.232;6.556;2024-02-04T00:04:00;102049.31;;;9.47;74.00
29359;BME280;16347;53.232;6.556;2024-02-04T00:06:28;102038.09;;;9.63;73.48
29359;BME280;16347;53.232;6.556;2024-02-04T00:08:56;102035.09;;;9.77;72.52
29359;BME280;16347;53.232;6.556;2024-02-04T00:11:24;102028.47;;;9.70;72.06
29359;BME280;16347;53.232;6.556;2024-02-04T00:13:52;102024.00;;;9.69;71.89
29359;BME280;16347;53.232;6.556;2024-02-04T00:16:20;102030.31;;;9.58;72.51
29359;BME280;16347;53.232;6.556;2024-02-04T00:18:48;102031.91;;;9.61;72.06
29359;BME280;16347;53.232;6.556;2024-02-04T00:21:18;102037.59;;;9.58;72.13
29359;BME280;16347;53.232;6.556;2024-02-04T00:23:46;102034.25;;;9.54;72.17
29359;BME280;16347;53.232;6.556;2024-02-04T00:26:14;102031.53;;;9.54;72.09
29359;BME280;16347;53.232;6.556;2024-02-04T00:28:41;102040.16;;;9.37;72.77
29359;BME280;16347;53.232;6.556;2024-02-04T00:31:10;102053.38;;;9.42;72.38
29359;BME280;16347;53.232;6.556;2024-02-04T00:33:38;102065.13;;;9.53;72.18
29359;BME280;16347;53.232;6.556;2024-02-04T00:36:07;102069.66;;;9.64;71.86
29359;BME280;16347;53.232;6.556;2024-02-04T00:38:36;102072.72;;;9.37;72.54
29359;BME280;16347;53.232;6.556;2024-02-04T00:41:04;102062.75;;;9.49;72.32
29359;BME280;16347;53.232;6.556;2024-02-04T00:43:51;102076.94;;;9.41;71.80
29359;BME280;16347;53.232;6.556;2024-02-04T00:46:19;102072.03;;;9.46;72.08
29359;BME280;16347;53.232;6.556;2024-02-04T00:48:47;102062.16;;;9.56;71.49
29359;BME280;16347;53.232;6.556;2024-02-04T00:51:15;102053.25;;;9.54;71.33
29359;BME280;16347;53.232;6.556;2024-02-04T00:53:45;102050.91;;;9.39;71.39
29359;BME280;16347;53.232;6.556;2024-02-04T00:56:13;102049.31;;;9.36;71.15
29359;BME280;16347;53.232;6.556;2024-02-04T00:58:41;102048.78;;;9.31;71.41
29359;BME280;16347;53.232;6.556;2024-02-04T01:01:08;102047.44;;;9.25;71.74
29359;BME280;16347;53.232;6.556;2024-02-04T01:03:37;102038.31;;;9.38;71.23
29359;BME280;16347;53.232;6.556;2024-02-04T01:06:04;102028.56;;;9.24;71.57
29359;BME280;16347;53.232;6.556;2024-02-04T01:08:52;102028.94;;;9.42;71.79
29359;BME280;16347;53.232;6.556;2024-02-04T01:11:20;102029.06;;;9.40;71.38
29359;BME280;16347;53.232;6.556;2024-02-04T01:13:48;102036.84;;;9.22;71.27
29359;BME280;16347;53.232;6.556;2024-02-04T01:16:16;102034.44;;;9.07;71.64
29359;BME280;16347;53.232;6.556;2024-02-04T01:18:45;102032.47;;;8.98;72.02
29359;BME280;16347;53.232;6.556;2024-02-04T01:21:13;102039.47;;;8.89;72.29
29359;BME280;16347;53.232;6.556;2024-02-04T01:23:41;102029.34;;;8.91;72.95
29359;BME280;16347;53.232;6.556;2024-02-04T01:26:10;102032.81;;;8.93;72.29
29359;BME280;16347;53.232;6.556;2024-02-04T01:28:38;102029.25;;;8.93;71.81
29359;BME280;16347;53.232;6.556;2024-02-04T01:31:06;102018.03;;;8.86;72.16
29359;BME280;16347;53.232;6.556;2024-02-04T01:33:34;102027.50;;;8.92;71.79
29359;BME280;16347;53.232;6.556;2024-02-04T01:36:03;102026.78;;;8.90;71.80
29359;BME280;16347;53.232;6.556;2024-02-04T01:38:31;102034.69;;;8.93;71.69
29359;BME280;16347;53.232;6.556;2024-02-04T01:40:59;102033.56;;;8.95;71.36
29359;BME280;16347;53.232;6.556;2024-02-04T01:43:28;102041.13;;;9.03;70.94
29359;BME280;16347;53.232;6.556;2024-02-04T01:45:57;102022.63;;;9.08;70.55
29359;BME280;16347;53.232;6.556;2024-02-04T01:48:26;102030.28;;;8.68;71.08
29359;BME280;16347;53.232;6.556;2024-02-04T01:50:56;102014.69;;;8.83;71.63
29359;BME280;16347;53.232;6.556;2024-02-04T01:53:26;102022.03;;;8.69;71.51
29359;BME280;16347;53.232;6.556;2024-02-04T01:55:54;102013.09;;;8.91;71.36
29359;BME280;16347;53.232;6.556;2024-02-04T01:58:22;102014.63;;;8.71;71.03
29359;BME280;16347;53.232;6.556;2024-02-04T02:00:52;102002.97;;;8.82;71.22
29359;BME280;16347;53.232;6.556;2024-02-04T02:03:21;102003.97;;;8.92;70.11
29359;BME280;16347;53.232;6.556;2024-02-04T02:05:49;101993.09;;;8.81;70.29
29359;BME280;16347;53.232;6.556;2024-02-04T02:08:18;102010.47;;;8.79;69.97
29359;BME280;16347;53.232;6.556;2024-02-04T02:10:48;102004.41;;;8.75;70.27
29359;BME280;16347;53.232;6.556;2024-02-04T02:13:20;101997.00;;;8.66;70.37
29359;BME280;16347;53.232;6.556;2024-02-04T02:15:54;101995.03;;;8.68;70.69
29359;BME280;16347;53.232;6.556;2024-02-04T02:18:29;101990.63;;;8.78;69.90
29359;BME280;16347;53.232;6.556;2024-02-04T02:21:13;101988.38;;;8.72;70.42
29359;BME280;16347;53.232;6.556;2024-02-04T02:23:53;101999.38;;;8.82;69.80
29359;BME280;16347;53.232;6.556;2024-02-04T02:26:29;101999.66;;;8.90;69.05
29359;BME280;16347;53.232;6.556;2024-02-04T02:28:58;101989.91;;;8.98;69.03
29359;BME280;16347;53.232;6.556;2024-02-04T02:31:26;101990.41;;;8.92;68.73
29359;BME280;16347;53.232;6.556;2024-02-04T02:34:10;101992.41;;;8.66;69.34
29359;BME280;16347;53.232;6.556;2024-02-04T02:36:59;101999.72;;;8.66;69.24
29359;BME280;16347;53.232;6.556;2024-02-04T02:39:32;101993.44;;;8.65;69.59
29359;BME280;16347;53.232;6.556;2024-02-04T02:42:04;101999.88;;;8.75;69.50
29359;BME280;16347;53.232;6.556;2024-02-04T02:44:32;101987.75;;;8.68;69.52
29359;BME280;16347;53.232;6.556;2024-02-04T02:47:02;101989.22;;;8.61;70.24
29359;BME280;16347;53.232;6.556;2024-02-04T02:49:32;101986.22;;;8.53;70.73
29359;BME280;16347;53.232;6.556;2024-02-04T02:52:00;101986.97;;;8.55;70.89
29359;BME280;16347;53.232;6.556;2024-02-04T02:54:28;101978.47;;;8.60;71.49
29359;BME280;16347;53.232;6.556;2024-02-04T02:56:57;101989.38;;;8.23;72.22
29359;BME280;16347;53.232;6.556;2024-02-04T02:59:26;101978.41;;;8.38;73.11
29359;BME280;16347;53.232;6.556;2024-02-04T03:01:54;101976.31;;;8.41;72.55
29359;BME280;16347;53.232;6.556;2024-02-04T03:04:22;101960.94;;;8.42;72.71
29359;BME280;16347;53.232;6.556;2024-02-04T03:06:50;101962.09;;;8.61;72.46
29359;BME280;16347;53.232;6.556;2024-02-04T03:09:18;101961.09;;;8.51;72.50
29359;BME280;16347;53.232;6.556;2024-02-04T03:11:46;101974.00;;;8.48;72.85
29359;BME280;16347;53.232;6.556;2024-02-04T03:14:15;101974.19;;;8.34;73.86
29359;BME280;16347;53.232;6.556;2024-02-04T03:16:45;101985.06;;;8.21;74.59
29359;BME280;16347;53.232;6.556;2024-02-04T03:19:13;101992.28;;;8.33;74.30
29359;BME280;16347;53.232;6.556;2024-02-04T03:21:41;102005.97;;;8.32;74.57
29359;BME280;16347;53.232;6.556;2024-02-04T03:24:09;101992.66;;;8.29;74.67
29359;BME280;16347;53.232;6.556;2024-02-04T03:26:37;101992.47;;;8.19;75.01
29359;BME280;16347;53.232;6.556;2024-02-04T03:29:05;101976.53;;;8.14;75.45
29359;BME280;16347;53.232;6.556;2024-02-04T03:31:33;101968.81;;;8.21;75.67
29359;BME280;16347;53.232;6.556;2024-02-04T03:34:03;101976.31;;;8.17;75.29
29359;BME280;16347;53.232;6.556;2024-02-04T03:36:31;101988.50;;;8.12;75.43
29359;BME280;16347;53.232;6.556;2024-02-04T03:38:59;101982.06;;;8.13;75.90
29359;BME280;16347;53.232;6.556;2024-02-04T03:41:27;101981.91;;;8.27;75.59
29359;BME280;16347;53.232;6.556;2024-02-04T03:43:55;101965.78;;;8.25;75.04
29359;BME280;16347;53.232;6.556;2024-02-04T03:46:22;101967.56;;;8.38;74.40
29359;BME280;16347;53.232;6.556;2024-02-04T03:48:50;101983.63;;;8.52;74.52
29359;BME280;16347;53.232;6.556;2024-02-04T03:51:20;101981.59;;;8.32;74.53
29359;BME280;16347;53.232;6.556;2024-02-04T03:53:50;101974.56;;;8.29;74.46
29359;BME280;16347;53.232;6.556;2024-02-04T03:56:18;101980.63;;;8.33;74.38
29359;BME280;16347;53.232;6.556;2024-02-04T03:58:46;101970.50;;;8.35;73.74
29359;BME280;16347;53.232;6.556;2024-02-04T04:01:14;101958.94;;;8.33;73.67
29359;BME280;16347;53.232;6.556;2024-02-04T04:03:43;101960.59;;;8.22;74.33
29359;BME280;16347;53.232;6.556;2024-02-04T04:06:11;101955.91;;;8.24;74.40
29359;BME280;16347;53.232;6.556;2024-02-04T04:08:41;101958.78;;;8.10;74.41
29359;BME280;16347;53.232;6.556;2024-02-04T04:11:10;101956.94;;;8.11;74.77
29359;BME280;16347;53.232;6.556;2024-02-04T04:13:38;101942.44;;;8.12;74.64
29359;BME280;16347;53.232;6.556;2024-02-04T04:16:06;101947.53;;;8.27;74.71
29359;BME280;16347;53.232;6.556;2024-02-04T04:18:34;101958.00;;;8.45;74.11
29359;BME280;16347;53.232;6.556;2024-02-04T04:21:03;101968.91;;;8.32;73.55
29359;BME280;16347;53.232;6.556;2024-02-04T04:23:31;101967.16;;;8.31;74.08
29359;BME280;16347;53.232;6.556;2024-02-04T04:26:00;101965.78;;;8.25;74.02
29359;BME280;16347;53.232;6.556;2024-02-04T04:28:28;101953.16;;;8.37;73.93
29359;BME280;16347;53.232;6.556;2024-02-04T04:30:56;101958.31;;;8.16;74.34
29359;BME280;16347;53.232;6.556;2024-02-04T04:33:24;101951.47;;;8.23;74.42
29359;BME280;16347;53.232;6.556;2024-02-04T04:35:52;101953.06;;;8.26;75.05
29359;BME280;16347;53.232;6.556;2024-02-04T04:38:20;101936.31;;;8.45;73.97
29359;BME280;16347;53.232;6.556;2024-02-04T04:40:48;101938.53;;;8.27;74.13
29359;BME280;16347;53.232;6.556;2024-02-04T04:43:17;101940.00;;;8.20;75.42
29359;BME280;16347;53.232;6.556;2024-02-04T04:45:45;101933.94;;;8.16;75.09
29359;BME280;16347;53.232;6.556;2024-02-04T04:48:13;101923.00;;;8.53;74.51
29359;BME280;16347;53.232;6.556;2024-02-04T04:50:41;101931.84;;;8.44;74.04
29359;BME280;16347;53.232;6.556;2024-02-04T04:53:09;101941.81;;;8.32;74.83
29359;BME280;16347;53.232;6.556;2024-02-04T04:55:37;101917.91;;;8.13;75.81
29359;BME280;16347;53.232;6.556;2024-02-04T04:58:05;101922.72;;;8.10;75.82
29359;BME280;16347;53.232;6.556;2024-02-04T05:00:34;101914.41;;;8.24;75.80
29359;BME280;16347;53.232;6.556;2024-02-04T05:03:04;101910.81;;;8.23;75.42
29359;BME280;16347;53.232;6.556;2024-02-04T05:05:32;101900.22;;;8.20;75.46
29359;BME280;16347;53.232;6.556;2024-02-04T05:08:00;101897.00;;;8.15;75.56
29359;BME280;16347;53.232;6.556;2024-02-04T05:10:28;101892.25;;;7.95;76.45
29359;BME280;16347;53.232;6.556;2024-02-04T05:12:56;101895.53;;;7.88;76.98
29359;BME280;16347;53.232;6.556;2024-02-04T05:15:23;101893.53;;;8.02;76.62
29359;BME280;16347;53.232;6.556;2024-02-04T05:17:53;101891.75;;;8.25;76.01
29359;BME280;16347;53.232;6.556;2024-02-04T05:20:21;101881.88;;;8.24;75.24
29359;BME280;16347;53.232;6.556;2024-02-04T05:22:49;101883.00;;;8.21;75.42
29359;BME280;16347;53.232;6.556;2024-02-04T05:25:17;101900.78;;;8.13;75.77
29359;BME280;16347;53.232;6.556;2024-02-04T05:27:45;101891.13;;;8.21;76.12
29359;BME280;16347;53.232;6.556;2024-02-04T05:30:14;101903.44;;;8.25;75.26
29359;BME280;16347;53.232;6.556;2024-02-04T05:32:42;101909.06;;;8.35;74.63
29359;BME280;16347;53.232;6.556;2024-02-04T05:35:13;101900.94;;;8.35;74.65
29359;BME280;16347;53.232;6.556;2024-02-04T05:37:41;101909.69;;;8.39;74.60
29359;BME280;16347;53.232;6.556;2024-02-04T05:40:10;101893.94;;;8.20;74.95
29359;BME280;16347;53.232;6.556;2024-02-04T05:42:39;101900.16;;;8.33;74.84
29359;BME280;16347;53.232;6.556;2024-02-04T05:45:08;101881.00;;;8.47;74.19
29359;BME280;16347;53.232;6.556;2024-02-04T05:47:36;101894.81;;;8.55;73.64
29359;BME280;16347;53.232;6.556;2024-02-04T05:50:06;101881.13;;;8.46;73.50
29359;BME280;16347;53.232;6.556;2024-02-04T05:52:36;101882.59;;;8.39;73.90
29359;BME280;16347;53.232;6.556;2024-02-04T05:55:04;101874.22;;;8.42;73.18
29359;BME280;16347;53.232;6.556;2024-02-04T05:57:33;101854.84;;;8.46;73.18
29359;BME280;16347;53.232;6.556;2024-02-04T06:00:01;101868.41;;;8.35;73.59
29359;BME280;16347;53.232;6.556;2024-02-04T06:02:34;101885.41;;;8.37;73.51
29359;BME280;16347;53.232;6.556;2024-02-04T06:05:03;101880.13;;;8.12;73.66
29359;BME280;16347;53.232;6.556;2024-02-04T06:07:30;101881.34;;;8.32;73.77
29359;BME280;16347;53.232;6.556;2024-02-04T06:10:00;101874.00;;;8.21;73.78
29359;BME280;16347;53.232;6.556;2024-02-04T06:12:30;101863.34;;;8.31;73.71
29359;BME280;16347;53.232;6.556;2024-02-04T06:14:58;101868.28;;;8.37;73.35
29359;BME280;16347;53.232;6.556;2024-02-04T06:17:26;101883.00;;;8.21;73.50
29359;BME280;16347;53.232;6.556;2024-02-04T06:19:54;101877.44;;;8.23;73.42
29359;BME280;16347;53.232;6.556;2024-02-04T06:22:24;101878.06;;;8.26;73.82
29359;BME280;16347;53.232;6.556;2024-02-04T06:24:51;101878.25;;;8.36;73.78
29359;BME280;16347;53.232;6.556;2024-02-04T06:27:21;101869.38;;;8.34;73.02
29359;BME280;16347;53.232;6.556;2024-02-04T06:29:49;101863.97;;;8.10;73.75
29359;BME280;16347;53.232;6.556;2024-02-04T06:32:17;101844.00;;;8.00;74.31
29359;BME280;16347;53.232;6.556;2024-02-04T06:34:46;101857.94;;;8.07;74.01
29359;BME280;16347;53.232;6.556;2024-02-04T06:37:15;101864.38;;;8.17;74.20
29359;BME280;16347;53.232;6.556;2024-02-04T06:39:43;101839.66;;;8.21;73.24
29359;BME280;16347;53.232;6.556;2024-02-04T06:42:11;101833.91;;;8.37;72.76
29359;BME280;16347;53.232;6.556;2024-02-04T06:44:42;101841.00;;;8.27;72.59
29359;BME280;16347;53.232;6.556;2024-02-04T06:47:13;101854.63;;;8.38;72.12
29359;BME280;16347;53.232;6.556;2024-02-04T06:49:43;101865.22;;;8.41;71.91
29359;BME280;16347;53.232;6.556;2024-02-04T06:52:12;101867.06;;;8.41;71.98
29359;BME280;16347;53.232;6.556;2024-02-04T06:54:40;101856.63;;;8.58;71.36
29359;BME280;16347;53.232;6.556;2024-02-04T06:57:07;101857.22;;;8.73;70.29
29359;BME280;16347;53.232;6.556;2024-02-04T06:59:35;101854.91;;;8.68;70.73
29359;BME280;16347;53.232;6.556;2024-02-04T07:02:05;101858.22;;;8.83;70.07
29359;BME280;16347;53.232;6.556;2024-02-04T07:04:33;101846.16;;;8.76;70.11
29359;BME280;16347;53.232;6.556;2024-02-04T07:07:01;101825.44;;;8.75;69.79
29359;BME280;16347;53.232;6.556;2024-02-04T07:09:29;101807.94;;;8.68;69.82
29359;BME280;16347;53.232;6.556;2024-02-04T07:11:57;101807.31;;;8.53;70.65
29359;BME280;16347;53.232;6.556;2024-02-04T07:14:25;101808.94;;;8.56;70.17
29359;BME280;16347;53.232;6.556;2024-02-04T07:16:53;101810.16;;;8.63;70.25
29359;BME280;16347;53.232;6.556;2024-02-04T07:19:23;101817.06;;;8.45;70.88
29359;BME280;16347;53.232;6.556;2024-02-04T07:21:51;101798.22;;;8.65;70.17
29359;BME280;16347;53.232;6.556;2024-02-04T07:24:19;101808.94;;;8.67;69.92
29359;BME280;16347;53.232;6.556;2024-02-04T07:26:48;101812.13;;;8.61;69.92
29359;BME280;16347;53.232;6.556;2024-02-04T07:29:16;101811.53;;;8.68;69.94
29359;BME280;16347;53.232;6.556;2024-02-04T07:31:44;101817.06;;;8.45;70.58
29359;BME280;16347;53.232;6.556;2024-02-04T07:34:12;101805.50;;;8.65;70.32
29359;BME280;16347;53.232;6.556;2024-02-04T07:36:42;101815.69;;;8.50;70.71
29359;BME280;16347;53.232;6.556;2024-02-04T07:39:11;101816.28;;;8.43;70.87
29359;BME280;16347;53.232;6.556;2024-02-04T07:41:39;101824.34;;;8.55;71.11
29359;BME280;16347;53.232;6.556;2024-02-04T07:44:07;101821.00;;;8.63;70.96
29359;BME280;16347;53.232;6.556;2024-02-04T07:46:35;101829.88;;;8.54;71.07
29359;BME280;16347;53.232;6.556;2024-02-04T07:49:03;101838.13;;;8.63;71.18
29359;BME280;16347;53.232;6.556;2024-02-04T07:51:31;101834.97;;;8.69;70.71
29359;BME280;16347;53.232;6.556;2024-02-04T07:54:03;101842.06;;;8.70;70.79
29359;BME280;16347;53.232;6.556;2024-02-04T07:56:31;101844.06;;;8.80;70.74
29359;BME280;16347;53.232;6.556;2024-02-04T07:58:59;101841.47;;;8.78;71.13
29359;BME280;16347;53.232;6.556;2024-02-04T08:01:27;101832.47;;;9.00;70.04
29359;BME280;16347;53.232;6.556;2024-02-04T08:03:55;101836.94;;;8.90;69.93
29359;BME280;16347;53.232;6.556;2024-02-04T08:06:24;101825.69;;;9.05;69.55
29359;BME280;16347;53.232;6.556;2024-02-04T08:08:52;101812.59;;;9.10;69.28
29359;BME280;16347;53.232;6.556;2024-02-04T08:11:21;101814.59;;;8.97;69.82
29359;BME280;16347;53.232;6.556;2024-02-04T08:13:49;101831.25;;;8.82;70.69
29359;BME280;16347;53.232;6.556;2024-02-04T08:16:17;101820.38;;;8.70;70.99
29359;BME280;16347;53.232;6.556;2024-02-04T08:18:47;101822.72;;;8.64;71.87
29359;BME280;16347;53.232;6.556;2024-02-04T08:21:15;101808.19;;;8.65;72.36
29359;BME280;16347;53.232;6.556;2024-02-04T08:23:44;101815.97;;;8.69;72.11
29359;BME280;16347;53.232;6.556;2024-02-04T08:26:12;101816.69;;;8.71;72.23
29359;BME280;16347;53.232;6.556;2024-02-04T08:28:41;101815.22;;;8.90;71.68
29359;BME280;16347;53.232;6.556;2024-02-04T08:31:09;101812.25;;;8.93;71.68
29359;BME280;16347;53.232;6.556;2024-02-04T08:33:37;101817.06;;;8.89;71.59
29359;BME280;16347;53.232;6.556;2024-02-04T08:36:06;101829.16;;;8.96;71.71
29359;BME280;16347;53.232;6.556;2024-02-04T08:38:37;101825.31;;;8.88;71.87
29359;BME280;16347;53.232;6.556;2024-02-04T08:41:06;101831.97;;;9.06;71.57
29359;BME280;16347;53.232;6.556;2024-02-04T08:43:34;101825.53;;;9.07;71.58
29359;BME280;16347;53.232;6.556;2024-02-04T08:46:04;101821.75;;;9.09;71.66
29359;BME280;16347;53.232;6.556;2024-02-04T08:48:39;101843.81;;;9.16;71.17
29359;BME280;16347;53.232;6.556;2024-02-04T08:51:10;101826.91;;;9.12;71.40
29359;BME280;16347;53.232;6.556;2024-02-04T08:53:38;101812.13;;;9.16;71.37
29359;BME280;16347;53.232;6.556;2024-02-04T08:56:06;101816.16;;;9.22;71.19
29359;BME280;16347;53.232;6.556;2024-02-04T08:58:35;101811.72;;;9.21;71.67
29359;BME280;16347;53.232;6.556;2024-02-04T09:01:05;101813.19;;;9.25;71.19
29359;BME280;16347;53.232;6.556;2024-02-04T09:03:33;101819.22;;;9.28;71.24
29359;BME280;16347;53.232;6.556;2024-02-04T09:06:01;101815.47;;;9.41;71.17
29359;BME280;16347;53.232;6.556;2024-02-04T09:08:29;101808.19;;;9.52;70.40
29359;BME280;16347;53.232;6.556;2024-02-04T09:10:57;101814.25;;;9.45;70.44
29359;BME280;16347;53.232;6.556;2024-02-04T09:13:25;101811.47;;;9.24;71.17
29359;BME280;16347;53.232;6.556;2024-02-04T09:15:53;101840.84;;;9.19;71.65
29359;BME280;16347;53.232;6.556;2024-02-04T09:18:24;101833.66;;;9.18;72.21
29359;BME280;16347;53.232;6.556;2024-02-04T09:20:52;101828.19;;;9.40;71.59
29359;BME280;16347;53.232;6.556;2024-02-04T09:23:20;101819.94;;;9.42;71.44
29359;BME280;16347;53.232;6.556;2024-02-04T09:25:48;101826.84;;;9.46;71.36
29359;BME280;16347;53.232;6.556;2024-02-04T09:28:16;101821.00;;;9.50;70.72
29359;BME280;16347;53.232;6.556;2024-02-04T09:30:44;101813.31;;;9.23;71.04
29359;BME280;16347;53.232;6.556;2024-02-04T09:33:13;101809.00;;;9.21;71.35
29359;BME280;16347;53.232;6.556;2024-02-04T09:35:43;101812.22;;;9.26;71.39
29359;BME280;16347;53.232;6.556;2024-02-04T09:38:12;101820.03;;;9.40;70.95
29359;BME280;16347;53.232;6.556;2024-02-04T09:40:41;101827.97;;;9.32;70.70
29359;BME280;16347;53.232;6.556;2024-02-04T09:43:10;101826.09;;;9.44;70.69
29359;BME280;16347;53.232;6.556;2024-02-04T09:45:38;101831.91;;;9.39;70.20
29359;BME280;16347;53.232;6.556;2024-02-04T09:48:08;101833.88;;;9.37;70.47
29359;BME280;16347;53.232;6.556;2024-02-04T09:50:36;101823.25;;;9.45;70.28
29359;BME280;16347;53.232;6.556;2024-02-04T09:53:07;101831.75;;;9.52;70.04
29359;BME280;16347;53.232;6.556;2024-02-04T09:55:38;101829.28;;;9.60;69.58
29359;BME280;16347;53.232;6.556;2024-02-04T09:58:07;101822.47;;;9.54;69.75
29359;BME280;16347;53.232;6.556;2024-02-04T10:00:35;101811.25;;;9.59;69.36
29359;BME280;16347;53.232;6.556;2024-02-04T10:03:06;101813.31;;;9.66;69.88
29359;BME280;16347;53.232;6.556;2024-02-04T10:05:35;101811.94;;;9.72;69.21
29359;BME280;16347;53.232;6.556;2024-02-04T10:08:03;101808.91;;;9.54;69.35
29359;BME280;16347;53.232;6.556;2024-02-04T10:10:33;101798.72;;;9.47;69.54
29359;BME280;16347;53.232;6.556;2024-02-04T10:13:06;101801.34;;;9.69;69.02
29359;BME280;16347;53.232;6.556;2024-02-04T10:15:34;101792.28;;;9.79;69.00
29359;BME280;16347;53.232;6.556;2024-02-04T10:18:03;101798.09;;;9.75;68.42
29359;BME280;16347;53.232;6.556;2024-02-04T10:20:31;101814.31;;;9.65;68.47
29359;BME280;16347;53.232;6.556;2024-02-04T10:22:59;101816.50;;;9.71;68.65
29359;BME280;16347;53.232;6.556;2024-02-04T10:25:27;101826.22;;;9.74;68.74
29359;BME280;16347;53.232;6.556;2024-02-04T10:27:56;101838.13;;;9.62;68.74
29359;BME280;16347;53.232;6.556;2024-02-04T10:30:25;101821.66;;;9.74;67.88
29359;BME280;16347;53.232;6.556;2024-02-04T10:32:54;101830.59;;;9.65;68.09
29359;BME280;16347;53.232;6.556;2024-02-04T10:35:22;101827.97;;;9.75;67.99
29359;BME280;16347;53.232;6.556;2024-02-04T10:37:51;101814.66;;;9.72;68.08
29359;BME280;16347;53.232;6.556;2024-02-04T10:40:19;101823.66;;;9.72;67.54
29359;BME280;16347;53.232;6.556;2024-02-04T10:42:49;101817.78;;;9.88;66.83
29359;BME280;16347;53.232;6.556;2024-02-04T10:45:22;101814.69;;;9.93;66.30
29359;BME280;16347;53.232;6.556;2024-02-04T10:47:55;101818.13;;;9.95;66.08
29359;BME280;16347;53.232;6.556;2024-02-04T10:50:24;101815.88;;;9.68;66.44
29359;BME280;16347;53.232;6.556;2024-02-04T10:52:55;101813.81;;;9.60;66.86
29359;BME280;16347;53.232;6.556;2024-02-04T10:55:27;101814.19;;;9.67;66.67
29359;BME280;16347;53.232;6.556;2024-02-04T10:57:56;101812.78;;;9.72;66.56
29359;BME280;16347;53.232;6.556;2024-02-04T11:00:27;101817.47;;;9.70;66.77
29359;BME280;16347;53.232;6.556;2024-02-04T11:02:56;101821.13;;;9.60;66.92
29359;BME280;16347;53.232;6.556;2024-02-04T11:05:25;101843.56;;;9.62;67.03
29359;BME280;16347;53.232;6.556;2024-02-04T11:07:55;101814.22;;;9.56;67.08
29359;BME280;16347;53.232;6.556;2024-02-04T11:10:27;101812.66;;;9.74;66.33
29359;BME280;16347;53.232;6.556;2024-02-04T11:12:56;101824.19;;;9.87;66.08
29359;BME280;16347;53.232;6.556;2024-02-04T11:15:30;101830.47;;;9.67;66.52
29359;BME280;16347;53.232;6.556;2024-02-04T11:18:24;101802.59;;;9.86;66.97
29359;BME280;16347;53.232;6.556;2024-02-04T11:21:12;101798.34;;;9.72;66.69
29359;BME280;16347;53.232;6.556;2024-02-04T11:23:51;101802.94;;;9.92;66.69
29359;BME280;16347;53.232;6.556;2024-02-04T11:26:26;101802.66;;;9.74;66.85
29359;BME280;16347;53.232;6.556;2024-02-04T11:28:54;101799.19;;;9.84;67.21
29359;BME280;16347;53.232;6.556;2024-02-04T11:31:28;101801.47;;;9.88;67.02
29359;BME280;16347;53.232;6.556;2024-02-04T11:33:57;101812.38;;;9.77;67.31
29359;BME280;16347;53.232;6.556;2024-02-04T11:36:25;101792.06;;;9.71;67.65
29359;BME280;16347;53.232;6.556;2024-02-04T11:38:53;101785.81;;;9.60;68.57
29359;BME280;16347;53.232;6.556;2024-02-04T11:41:22;101793.59;;;9.85;67.94
29359;BME280;16347;53.232;6.556;2024-02-04T11:43:52;101786.75;;;9.91;67.76
29359;BME280;16347;53.232;6.556;2024-02-04T11:46:30;101769.09;;;9.75;68.03
29359;BME280;16347;53.232;6.556;2024-02-04T11:49:00;101775.97;;;9.79;68.09
29359;BME280;16347;53.232;6.556;2024-02-04T11:51:29;101766.31;;;9.87;67.91
29359;BME280;16347;53.232;6.556;2024-02-04T11:53:58;101776.31;;;10.07;67.63
29359;BME280;16347;53.232;6.556;2024-02-04T11:56:29;101774.91;;;10.12;67.17
29359;BME280;16347;53.232;6.556;2024-02-04T11:58:59;101772.25;;;10.01;67.86
29359;BME280;16347;53.232;6.556;2024-02-04T12:01:31;101776.78;;;10.12;67.43
29359;BME280;16347;53.232;6.556;2024-02-04T12:04:09;101755.69;;;10.04;67.90
29359;BME280;16347;53.232;6.556;2024-02-04T12:06:37;101778.63;;;10.11;67.12
29359;BME280;16347;53.232;6.556;2024-02-04T12:09:05;101753.84;;;10.05;67.93
29359;BME280;16347;53.232;6.556;2024-02-04T12:11:34;101768.44;;;10.24;67.78
29359;BME280;16347;53.232;6.556;2024-02-04T12:14:03;101777.44;;;10.04;68.08
29359;BME280;16347;53.232;6.556;2024-02-04T12:16:33;101775.91;;;9.91;69.35
29359;BME280;16347;53.232;6.556;2024-02-04T12:19:03;101769.53;;;10.01;69.69
29359;BME280;16347;53.232;6.556;2024-02-04T12:21:31;101775.34;;;10.28;69.04
29359;BME280;16347;53.232;6.556;2024-02-04T12:24:00;101767.09;;;10.40;68.39
29359;BME280;16347;53.232;6.556;2024-02-04T12:26:29;101768.03;;;10.08;68.87
29359;BME280;16347;53.232;6.556;2024-02-04T12:28:58;101761.34;;;10.12;69.27
29359;BME280;16347;53.232;6.556;2024-02-04T12:31:26;101760.94;;;10.38;68.33
29359;BME280;16347;53.232;6.556;2024-02-04T12:33:57;101769.88;;;10.08;69.06
29359;BME280;16347;53.232;6.556;2024-02-04T12:36:27;101771.41;;;10.01;69.03
29359;BME280;16347;53.232;6.556;2024-02-04T12:38:56;101781.09;;;9.94;69.25
29359;BME280;16347;53.232;6.556;2024-02-04T12:41:25;101755.19;;;10.10;68.70
29359;BME280;16347;53.232;6.556;2024-02-04T12:43:54;101765.66;;;10.15;68.50
29359;BME280;16347;53.232;6.556;2024-02-04T12:46:22;101757.13;;;10.19;67.81
29359;BME280;16347;53.232;6.556;2024-02-04T12:48:51;101769.56;;;10.22;67.74
29359;BME280;16347;53.232;6.556;2024-02-04T12:51:25;101795.69;;;10.13;67.93
29359;BME280;16347;53.232;6.556;2024-02-04T12:54:04;101748.41;;;10.05;67.37
29359;BME280;16347;53.232;6.556;2024-02-04T12:56:46;101741.81;;;10.18;67.48
29359;BME280;16347;53.232;6.556;2024-02-04T12:59:25;101745.09;;;10.01;67.46
29359;BME280;16347;53.232;6.556;2024-02-04T13:01:57;101737.81;;;10.22;66.89
29359;BME280;16347;53.232;6.556;2024-02-04T13:04:25;101732.13;;;10.25;66.57
29359;BME280;16347;53.232;6.556;2024-02-04T13:06:55;101727.00;;;10.11;67.48
29359;BME280;16347;53.232;6.556;2024-02-04T13:09:23;101733.38;;;10.21;66.77
29359;BME280;16347;53.232;6.556;2024-02-04T13:11:51;101730.13;;;10.07;67.11